sensor_id;sensor_type;location;lat;lon;timestamp;temperature;humidity
31455;DHT22;18084;53.028;8.834;2022-10-23T00:02:59;9.80;99.90
31455;DHT22;18084;53.028;8.834;2022-10-23T00:05:27;9.80;99.90
31455;DHT22;18084;53.028;8.834;2022-10-23T00:07:57;12.80;99.90
31455;DHT22;18084;53.028;8.834;2022-10-23T00:10:25;9.60;99.90
31455;DHT22;18084;53.028;8.834;2022-10-23T00:12:51;9.10;99.90
31455;DHT22;18084;53.028;8.834;2022-10-23T00:15:17;11.80;99.90
31455;DHT22;18084;53.028;8.834;2022-10-23T00:17:43;9.10;99.90
31455;DHT22;18084;53.028;8.834;2022-10-23T00:20:09;11.90;99.90
31455;DHT22;18084;53.028;8.834;2022-10-23T00:22:36;12.50;99.90
31455;DHT22;18084;53.028;8.834;2022-10-23T00:27:27;9.70;99.90
31455;DHT22;18084;53.028;8.834;2022-10-23T00:29:53;12.20;99.90
31455;DHT22;18084;53.028;8.834;2022-10-23T00:32:18;9.60;99.90
31455;DHT22;18084;53.028;8.834;2022-10-23T00:59:13;9.70;99.90
31455;DHT22;18084;53.028;8.834;2022-10-23T01:01:40;9.60;99.90
31455;DHT22;18084;53.028;8.834;2022-10-23T01:04:06;9.60;99.90
31455;DHT22;18084;53.028;8.834;2022-10-23T01:06:37;9.30;99.90
31455;DHT22;18084;53.028;8.834;2022-10-23T01:09:31;9.50;99.90
31455;DHT22;18084;53.028;8.834;2022-10-23T01:12:03;9.60;99.90
31455;DHT22;18084;53.028;8.834;2022-10-23T01:14:57;9.20;99.90
31455;DHT22;18084;53.028;8.834;2022-10-23T01:17:43;9.50;99.90
31455;DHT22;18084;53.028;8.834;2022-10-23T01:23:01;9.40;99.90
31455;DHT22;18084;53.028;8.834;2022-10-23T01:28:10;9.30;99.90
31455;DHT22;18084;53.028;8.834;2022-10-23T01:30:40;9.00;99.90
31455;DHT22;18084;53.028;8.834;2022-10-23T01:33:12;9.30;99.90
31455;DHT22;18084;53.028;8.834;2022-10-23T01:35:49;9.30;99.90
31455;DHT22;18084;53.028;8.834;2022-10-23T01:38:22;9.30;99.90
31455;DHT22;18084;53.028;8.834;2022-10-23T01:41:13;12.30;99.90
31455;DHT22;18084;53.028;8.834;2022-10-23T01:50:13;9.30;99.90
31455;DHT22;18084;53.028;8.834;2022-10-23T01:52:59;9.00;99.90
31455;DHT22;18084;53.028;8.834;2022-10-23T01:55:27;9.30;99.90
31455;DHT22;18084;53.028;8.834;2022-10-23T01:57:53;9.30;99.90
31455;DHT22;18084;53.028;8.834;2022-10-23T02:00:26;9.10;99.90
31455;DHT22;18084;53.028;8.834;2022-10-23T02:02:53;9.40;99.90
31455;DHT22;18084;53.028;8.834;2022-10-23T02:05:34;9.00;99.90
31455;DHT22;18084;53.028;8.834;2022-10-23T02:08:00;9.50;99.90
31455;DHT22;18084;53.028;8.834;2022-10-23T02:14:06;9.50;99.90
31455;DHT22;18084;53.028;8.834;2022-10-23T02:19:51;9.40;99.90
31455;DHT22;18084;53.028;8.834;2022-10-23T02:22:39;9.20;99.90
31455;DHT22;18084;53.028;8.834;2022-10-23T02:25:39;9.20;99.90
31455;DHT22;18084;53.028;8.834;2022-10-23T02:29:00;9.20;99.90
31455;DHT22;18084;53.028;8.834;2022-10-23T02:31:51;9.20;99.90
31455;DHT22;18084;53.028;8.834;2022-10-23T02:37:33;9.50;99.90
31455;DHT22;18084;53.028;8.834;2022-10-23T02:40:18;9.30;99.90
31455;DHT22;18084;53.028;8.834;2022-10-23T02:42:57;9.50;99.90
31455;DHT22;18084;53.028;8.834;2022-10-23T02:45:33;9.60;99.90
31455;DHT22;18084;53.028;8.834;2022-10-23T02:48:21;9.50;99.90
31455;DHT22;18084;53.028;8.834;2022-10-23T02:51:02;9.60;99.90
31455;DHT22;18084;53.028;8.834;2022-10-23T02:53:31;12.50;99.90
31455;DHT22;18084;53.028;8.834;2022-10-23T03:01:31;9.50;99.90
31455;DHT22;18084;53.028;8.834;2022-10-23T03:04:02;9.50;99.90
31455;DHT22;18084;53.028;8.834;2022-10-23T03:06:29;9.90;99.90
31455;DHT22;18084;53.028;8.834;2022-10-23T03:09:03;9.30;99.90
31455;DHT22;18084;53.028;8.834;2022-10-23T03:11:29;9.60;99.90
31455;DHT22;18084;53.028;8.834;2022-10-23T03:13:54;9.50;99.90
31455;DHT22;18084;53.028;8.834;2022-10-23T03:16:20;10.00;99.90
31455;DHT22;18084;53.028;8.834;2022-10-23T03:18:46;9.30;99.90
31455;DHT22;18084;53.028;8.834;2022-10-23T03:21:12;9.60;99.90
31455;DHT22;18084;53.028;8.834;2022-10-23T03:23:37;9.60;99.90
31455;DHT22;18084;53.028;8.834;2022-10-23T03:26:04;9.50;99.90
31455;DHT22;18084;53.028;8.834;2022-10-23T03:28:29;9.60;99.90
31455;DHT22;18084;53.028;8.834;2022-10-23T03:30:55;11.80;99.90
31455;DHT22;18084;53.028;8.834;2022-10-23T03:33:21;9.50;99.90
31455;DHT22;18084;53.028;8.834;2022-10-23T03:35:48;12.30;99.90
31455;DHT22;18084;53.028;8.834;2022-10-23T03:38:14;10.50;99.90
31455;DHT22;18084;53.028;8.834;2022-10-23T03:40:39;11.90;99.90
31455;DHT22;18084;53.028;8.834;2022-10-23T03:43:05;10.60;99.90
31455;DHT22;18084;53.028;8.834;2022-10-23T03:45:30;9.20;99.90
31455;DHT22;18084;53.028;8.834;2022-10-23T03:47:57;11.40;99.90
31455;DHT22;18084;53.028;8.834;2022-10-23T03:50:22;11.80;99.90
31455;DHT22;18084;53.028;8.834;2022-10-23T03:52:48;10.20;99.90
31455;DHT22;18084;53.028;8.834;2022-10-23T03:55:13;9.20;99.90
31455;DHT22;18084;53.028;8.834;2022-10-23T03:57:39;9.50;99.90
31455;DHT22;18084;53.028;8.834;2022-10-23T04:00:05;9.20;99.90
31455;DHT22;18084;53.028;8.834;2022-10-23T04:02:31;9.60;99.90
31455;DHT22;18084;53.028;8.834;2022-10-23T04:04:56;9.50;99.90
31455;DHT22;18084;53.028;8.834;2022-10-23T04:07:22;9.40;99.90
31455;DHT22;18084;53.028;8.834;2022-10-23T04:09:48;9.70;99.90
31455;DHT22;18084;53.028;8.834;2022-10-23T04:12:14;9.70;99.90
31455;DHT22;18084;53.028;8.834;2022-10-23T04:14:39;9.50;99.90
31455;DHT22;18084;53.028;8.834;2022-10-23T04:17:05;9.30;99.90
31455;DHT22;18084;53.028;8.834;2022-10-23T04:19:30;12.10;99.90
31455;DHT22;18084;53.028;8.834;2022-10-23T04:21:56;9.20;99.90
31455;DHT22;18084;53.028;8.834;2022-10-23T04:24:23;12.40;99.90
31455;DHT22;18084;53.028;8.834;2022-10-23T04:26:49;9.50;99.90
31455;DHT22;18084;53.028;8.834;2022-10-23T04:29:14;12.50;99.90
31455;DHT22;18084;53.028;8.834;2022-10-23T04:31:40;12.00;99.90
31455;DHT22;18084;53.028;8.834;2022-10-23T04:34:05;9.50;99.90
31455;DHT22;18084;53.028;8.834;2022-10-23T04:36:31;9.20;99.90
31455;DHT22;18084;53.028;8.834;2022-10-23T04:38:56;9.50;99.90
31455;DHT22;18084;53.028;8.834;2022-10-23T04:41:22;11.30;99.90
31455;DHT22;18084;53.028;8.834;2022-10-23T04:43:47;11.70;99.90
31455;DHT22;18084;53.028;8.834;2022-10-23T04:46:13;9.50;99.90
31455;DHT22;18084;53.028;8.834;2022-10-23T04:48:38;12.20;99.90
31455;DHT22;18084;53.028;8.834;2022-10-23T04:51:05;9.50;99.90
31455;DHT22;18084;53.028;8.834;2022-10-23T04:53:31;9.50;99.90
31455;DHT22;18084;53.028;8.834;2022-10-23T04:55:57;9.20;99.90
31455;DHT22;18084;53.028;8.834;2022-10-23T04:58:24;9.40;99.90
31455;DHT22;18084;53.028;8.834;2022-10-23T05:00:50;9.10;99.90
31455;DHT22;18084;53.028;8.834;2022-10-23T05:03:16;9.10;99.90
31455;DHT22;18084;53.028;8.834;2022-10-23T05:05:41;9.30;99.90
31455;DHT22;18084;53.028;8.834;2022-10-23T05:08:07;9.20;99.90
31455;DHT22;18084;53.028;8.834;2022-10-23T05:10:33;10.80;99.90
31455;DHT22;18084;53.028;8.834;2022-10-23T05:12:59;12.00;99.90
31455;DHT22;18084;53.028;8.834;2022-10-23T05:15:24;10.00;99.90
31455;DHT22;18084;53.028;8.834;2022-10-23T05:17:51;9.40;99.90
31455;DHT22;18084;53.028;8.834;2022-10-23T05:20:21;9.20;99.90
31455;DHT22;18084;53.028;8.834;2022-10-23T05:22:59;9.20;99.90
31455;DHT22;18084;53.028;8.834;2022-10-23T05:25:28;9.50;99.90
31455;DHT22;18084;53.028;8.834;2022-10-23T05:28:00;9.40;99.90
31455;DHT22;18084;53.028;8.834;2022-10-23T05:30:27;9.40;99.90
31455;DHT22;18084;53.028;8.834;2022-10-23T05:32:55;9.70;99.90
31455;DHT22;18084;53.028;8.834;2022-10-23T05:35:49;9.40;99.90
31455;DHT22;18084;53.028;8.834;2022-10-23T05:38:46;9.30;99.90
31455;DHT22;18084;53.028;8.834;2022-10-23T05:41:44;9.30;99.90
31455;DHT22;18084;53.028;8.834;2022-10-23T05:44:11;9.40;99.90
31455;DHT22;18084;53.028;8.834;2022-10-23T05:46:42;9.20;99.90
31455;DHT22;18084;53.028;8.834;2022-10-23T05:49:33;9.20;99.90
31455;DHT22;18084;53.028;8.834;2022-10-23T05:52:00;9.30;99.90
31455;DHT22;18084;53.028;8.834;2022-10-23T05:54:27;9.30;99.90
31455;DHT22;18084;53.028;8.834;2022-10-23T05:56:56;9.10;99.90
31455;DHT22;18084;53.028;8.834;2022-10-23T05:59:29;9.20;99.90
31455;DHT22;18084;53.028;8.834;2022-10-23T06:02:38;9.10;99.90
31455;DHT22;18084;53.028;8.834;2022-10-23T06:05:24;9.20;99.90
31455;DHT22;18084;53.028;8.834;2022-10-23T06:14:11;9.10;99.90
31455;DHT22;18084;53.028;8.834;2022-10-23T06:23:09;9.20;99.90
31455;DHT22;18084;53.028;8.834;2022-10-23T06:29:14;9.30;99.90
31455;DHT22;18084;53.028;8.834;2022-10-23T06:31:41;9.20;99.90
31455;DHT22;18084;53.028;8.834;2022-10-23T06:34:10;9.20;99.90
31455;DHT22;18084;53.028;8.834;2022-10-23T06:36:55;9.30;99.90
31455;DHT22;18084;53.028;8.834;2022-10-23T06:39:22;9.30;99.90
31455;DHT22;18084;53.028;8.834;2022-10-23T06:42:07;9.30;99.90
31455;DHT22;18084;53.028;8.834;2022-10-23T06:44:48;9.30;99.90
31455;DHT22;18084;53.028;8.834;2022-10-23T06:47:18;9.30;99.90
31455;DHT22;18084;53.028;8.834;2022-10-23T06:49:44;9.40;99.90
31455;DHT22;18084;53.028;8.834;2022-10-23T06:52:13;9.40;99.90
31455;DHT22;18084;53.028;8.834;2022-10-23T06:54:39;9.40;99.90
31455;DHT22;18084;53.028;8.834;2022-10-23T06:57:05;9.40;99.90
31455;DHT22;18084;53.028;8.834;2022-10-23T06:59:32;9.50;99.90
31455;DHT22;18084;53.028;8.834;2022-10-23T07:01:57;9.50;99.90
31455;DHT22;18084;53.028;8.834;2022-10-23T07:04:23;9.50;99.90
31455;DHT22;18084;53.028;8.834;2022-10-23T07:06:48;9.60;99.90
31455;DHT22;18084;53.028;8.834;2022-10-23T07:09:14;9.60;99.90
31455;DHT22;18084;53.028;8.834;2022-10-23T07:11:39;9.70;99.90
31455;DHT22;18084;53.028;8.834;2022-10-23T07:14:05;9.70;99.90
31455;DHT22;18084;53.028;8.834;2022-10-23T07:16:31;9.70;99.90
31455;DHT22;18084;53.028;8.834;2022-10-23T07:18:58;9.80;99.90
31455;DHT22;18084;53.028;8.834;2022-10-23T07:21:30;10.00;99.90
31455;DHT22;18084;53.028;8.834;2022-10-23T07:23:56;10.00;99.90
31455;DHT22;18084;53.028;8.834;2022-10-23T07:26:22;10.10;99.90
31455;DHT22;18084;53.028;8.834;2022-10-23T07:28:48;10.20;99.90
31455;DHT22;18084;53.028;8.834;2022-10-23T07:31:22;10.20;99.90
31455;DHT22;18084;53.028;8.834;2022-10-23T07:33:48;10.20;99.90
31455;DHT22;18084;53.028;8.834;2022-10-23T07:36:14;10.40;99.90
31455;DHT22;18084;53.028;8.834;2022-10-23T07:38:39;10.50;99.90
31455;DHT22;18084;53.028;8.834;2022-10-23T07:41:05;10.40;99.90
31455;DHT22;18084;53.028;8.834;2022-10-23T07:43:31;10.50;99.90
31455;DHT22;18084;53.028;8.834;2022-10-23T07:45:58;10.60;99.90
31455;DHT22;18084;53.028;8.834;2022-10-23T07:48:23;10.50;99.90
31455;DHT22;18084;53.028;8.834;2022-10-23T07:50:51;10.70;99.90
31455;DHT22;18084;53.028;8.834;2022-10-23T07:53:21;10.70;99.90
31455;DHT22;18084;53.028;8.834;2022-10-23T07:55:58;10.80;99.90
31455;DHT22;18084;53.028;8.834;2022-10-23T07:58:25;10.80;99.90
31455;DHT22;18084;53.028;8.834;2022-10-23T08:01:01;10.90;99.90
31455;DHT22;18084;53.028;8.834;2022-10-23T08:03:32;11.00;99.90
31455;DHT22;18084;53.028;8.834;2022-10-23T08:05:58;11.00;99.90
31455;DHT22;18084;53.028;8.834;2022-10-23T08:08:24;11.20;99.90
31455;DHT22;18084;53.028;8.834;2022-10-23T08:10:52;11.00;99.90
31455;DHT22;18084;53.028;8.834;2022-10-23T08:13:18;11.10;99.90
31455;DHT22;18084;53.028;8.834;2022-10-23T08:15:48;11.10;99.90
31455;DHT22;18084;53.028;8.834;2022-10-23T08:18:14;11.10;99.90
31455;DHT22;18084;53.028;8.834;2022-10-23T08:20:45;11.20;99.90
31455;DHT22;18084;53.028;8.834;2022-10-23T08:23:12;11.30;99.90
31455;DHT22;18084;53.028;8.834;2022-10-23T08:25:38;11.30;99.90
31455;DHT22;18084;53.028;8.834;2022-10-23T08:28:05;11.40;99.90
31455;DHT22;18084;53.028;8.834;2022-10-23T08:30:31;11.40;99.90
31455;DHT22;18084;53.028;8.834;2022-10-23T08:32:57;11.40;99.90
31455;DHT22;18084;53.028;8.834;2022-10-23T08:35:22;11.40;99.90
31455;DHT22;18084;53.028;8.834;2022-10-23T08:37:48;11.50;99.90
31455;DHT22;18084;53.028;8.834;2022-10-23T08:40:21;11.50;99.90
31455;DHT22;18084;53.028;8.834;2022-10-23T08:42:58;11.60;99.90
31455;DHT22;18084;53.028;8.834;2022-10-23T08:45:30;11.70;99.90
31455;DHT22;18084;53.028;8.834;2022-10-23T08:48:03;11.70;99.90
31455;DHT22;18084;53.028;8.834;2022-10-23T08:50:43;11.80;99.90
31455;DHT22;18084;53.028;8.834;2022-10-23T08:56:30;12.10;99.90
31455;DHT22;18084;53.028;8.834;2022-10-23T08:59:03;12.10;99.90
31455;DHT22;18084;53.028;8.834;2022-10-23T09:01:41;12.20;99.90
31455;DHT22;18084;53.028;8.834;2022-10-23T09:04:10;12.20;99.90
31455;DHT22;18084;53.028;8.834;2022-10-23T09:12:22;12.30;99.90
31455;DHT22;18084;53.028;8.834;2022-10-23T09:17:30;12.40;99.90
31455;DHT22;18084;53.028;8.834;2022-10-23T09:20:21;12.50;99.90
31455;DHT22;18084;53.028;8.834;2022-10-23T09:22:48;12.60;99.90
31455;DHT22;18084;53.028;8.834;2022-10-23T09:25:18;12.80;99.90
31455;DHT22;18084;53.028;8.834;2022-10-23T09:27:49;12.70;99.90
31455;DHT22;18084;53.028;8.834;2022-10-23T09:30:36;12.80;99.90
31455;DHT22;18084;53.028;8.834;2022-10-23T09:33:22;12.90;99.90
31455;DHT22;18084;53.028;8.834;2022-10-23T09:36:00;13.10;99.90
31455;DHT22;18084;53.028;8.834;2022-10-23T09:40:53;13.30;99.90
31455;DHT22;18084;53.028;8.834;2022-10-23T09:43:19;13.40;99.90
31455;DHT22;18084;53.028;8.834;2022-10-23T09:45:56;13.50;99.90
31455;DHT22;18084;53.028;8.834;2022-10-23T09:48:22;13.60;99.90
31455;DHT22;18084;53.028;8.834;2022-10-23T09:50:55;13.70;99.90
31455;DHT22;18084;53.028;8.834;2022-10-23T09:53:34;13.90;99.90
31455;DHT22;18084;53.028;8.834;2022-10-23T09:56:03;14.20;99.90
31455;DHT22;18084;53.028;8.834;2022-10-23T09:58:42;14.50;99.90
31455;DHT22;18084;53.028;8.834;2022-10-23T10:01:30;14.60;99.90
31455;DHT22;18084;53.028;8.834;2022-10-23T10:03:57;14.80;99.90
31455;DHT22;18084;53.028;8.834;2022-10-23T10:06:27;14.90;99.90
31455;DHT22;18084;53.028;8.834;2022-10-23T10:08:56;15.00;99.90
31455;DHT22;18084;53.028;8.834;2022-10-23T10:11:41;15.20;99.90
31455;DHT22;18084;53.028;8.834;2022-10-23T10:17:05;15.30;99.90
31455;DHT22;18084;53.028;8.834;2022-10-23T10:20:02;15.20;99.90
31455;DHT22;18084;53.028;8.834;2022-10-23T10:25:12;15.10;99.90
31455;DHT22;18084;53.028;8.834;2022-10-23T10:30:21;15.00;99.90
31455;DHT22;18084;53.028;8.834;2022-10-23T10:35:48;15.00;99.90
31455;DHT22;18084;53.028;8.834;2022-10-23T10:38:49;15.10;99.90
31455;DHT22;18084;53.028;8.834;2022-10-23T10:46:58;14.90;99.90
31455;DHT22;18084;53.028;8.834;2022-10-23T10:49:54;15.00;99.90
31455;DHT22;18084;53.028;8.834;2022-10-23T10:52:41;15.10;99.90
31455;DHT22;18084;53.028;8.834;2022-10-23T10:57:38;15.40;99.90
31455;DHT22;18084;53.028;8.834;2022-10-23T11:00:18;15.40;99.90
31455;DHT22;18084;53.028;8.834;2022-10-23T11:02:47;15.50;99.90
31455;DHT22;18084;53.028;8.834;2022-10-23T11:05:15;16.00;99.90
31455;DHT22;18084;53.028;8.834;2022-10-23T11:10:18;15.60;99.90
31455;DHT22;18084;53.028;8.834;2022-10-23T11:12:45;15.70;99.90
31455;DHT22;18084;53.028;8.834;2022-10-23T11:15:16;15.70;99.90
31455;DHT22;18084;53.028;8.834;2022-10-23T11:17:47;15.70;99.90
31455;DHT22;18084;53.028;8.834;2022-10-23T11:20:23;15.80;99.90
31455;DHT22;18084;53.028;8.834;2022-10-23T11:29:02;15.90;99.90
31455;DHT22;18084;53.028;8.834;2022-10-23T11:31:45;15.80;99.90
31455;DHT22;18084;53.028;8.834;2022-10-23T12:01:38;16.20;99.90
31455;DHT22;18084;53.028;8.834;2022-10-23T12:06:42;16.30;99.90
31455;DHT22;18084;53.028;8.834;2022-10-23T12:09:24;16.30;99.90
31455;DHT22;18084;53.028;8.834;2022-10-23T12:14:44;16.40;99.90
31455;DHT22;18084;53.028;8.834;2022-10-23T12:17:29;16.40;99.90
31455;DHT22;18084;53.028;8.834;2022-10-23T12:20:16;16.50;99.90
31455;DHT22;18084;53.028;8.834;2022-10-23T12:31:21;16.90;99.90
31455;DHT22;18084;53.028;8.834;2022-10-23T12:34:06;16.90;99.90
31455;DHT22;18084;53.028;8.834;2022-10-23T12:37:00;16.80;99.90
31455;DHT22;18084;53.028;8.834;2022-10-23T12:41:59;16.80;99.90
31455;DHT22;18084;53.028;8.834;2022-10-23T12:44:26;16.60;99.90
31455;DHT22;18084;53.028;8.834;2022-10-23T12:47:15;16.60;99.90
31455;DHT22;18084;53.028;8.834;2022-10-23T12:49:48;16.60;99.90
31455;DHT22;18084;53.028;8.834;2022-10-23T12:52:17;16.60;99.90
31455;DHT22;18084;53.028;8.834;2022-10-23T12:54:44;16.70;99.90
31455;DHT22;18084;53.028;8.834;2022-10-23T12:57:28;16.70;99.90
31455;DHT22;18084;53.028;8.834;2022-10-23T13:00:00;16.70;99.90
31455;DHT22;18084;53.028;8.834;2022-10-23T13:02:29;16.70;99.90
31455;DHT22;18084;53.028;8.834;2022-10-23T13:05:03;16.70;99.90
31455;DHT22;18084;53.028;8.834;2022-10-23T13:08:17;16.60;99.90
31455;DHT22;18084;53.028;8.834;2022-10-23T13:11:19;16.50;99.90
31455;DHT22;18084;53.028;8.834;2022-10-23T13:14:40;16.50;99.90
31455;DHT22;18084;53.028;8.834;2022-10-23T13:17:17;16.40;99.90
31455;DHT22;18084;53.028;8.834;2022-10-23T13:21:25;16.50;99.90
31455;DHT22;18084;53.028;8.834;2022-10-23T13:23:56;16.40;99.90
31455;DHT22;18084;53.028;8.834;2022-10-23T13:27:15;16.40;99.90
31455;DHT22;18084;53.028;8.834;2022-10-23T13:29:59;16.40;99.90
31455;DHT22;18084;53.028;8.834;2022-10-23T13:32:47;16.40;99.90
31455;DHT22;18084;53.028;8.834;2022-10-23T13:35:40;16.40;99.90
31455;DHT22;18084;53.028;8.834;2022-10-23T13:38:09;16.40;99.90
31455;DHT22;18084;53.028;8.834;2022-10-23T13:46:52;16.50;99.90
31455;DHT22;18084;53.028;8.834;2022-10-23T13:49:47;16.40;99.90
31455;DHT22;18084;53.028;8.834;2022-10-23T13:55:54;16.60;99.90
31455;DHT22;18084;53.028;8.834;2022-10-23T13:58:49;16.50;99.90
31455;DHT22;18084;53.028;8.834;2022-10-23T17:57:45;15.30;99.90
31455;DHT22;18084;53.028;8.834;2022-10-23T18:00:11;16.60;99.90
31455;DHT22;18084;53.028;8.834;2022-10-23T18:02:37;15.30;99.90
31455;DHT22;18084;53.028;8.834;2022-10-23T18:05:02;15.80;99.90
31455;DHT22;18084;53.028;8.834;2022-10-23T18:07:28;15.40;99.90
31455;DHT22;18084;53.028;8.834;2022-10-23T18:09:53;16.90;99.90
31455;DHT22;18084;53.028;8.834;2022-10-23T18:12:19;16.20;99.90
31455;DHT22;18084;53.028;8.834;2022-10-23T18:14:44;16.80;99.90
31455;DHT22;18084;53.028;8.834;2022-10-23T18:17:10;16.50;99.90
31455;DHT22;18084;53.028;8.834;2022-10-23T18:19:35;16.80;99.90
31455;DHT22;18084;53.028;8.834;2022-10-23T18:22:01;17.70;99.90
31455;DHT22;18084;53.028;8.834;2022-10-23T18:24:27;15.60;99.90
31455;DHT22;18084;53.028;8.834;2022-10-23T18:26:53;15.10;99.90
31455;DHT22;18084;53.028;8.834;2022-10-23T18:29:18;15.10;99.90
31455;DHT22;18084;53.028;8.834;2022-10-23T18:31:45;17.80;99.90
31455;DHT22;18084;53.028;8.834;2022-10-23T18:34:23;16.90;99.90
31455;DHT22;18084;53.028;8.834;2022-10-23T18:36:49;16.20;99.90
31455;DHT22;18084;53.028;8.834;2022-10-23T18:39:17;16.10;99.90
31455;DHT22;18084;53.028;8.834;2022-10-23T18:41:44;16.90;99.90
31455;DHT22;18084;53.028;8.834;2022-10-23T18:44:14;17.40;99.90
31455;DHT22;18084;53.028;8.834;2022-10-23T18:46:39;17.20;99.90
31455;DHT22;18084;53.028;8.834;2022-10-23T18:49:05;17.10;99.90
31455;DHT22;18084;53.028;8.834;2022-10-23T18:51:33;18.00;99.90
31455;DHT22;18084;53.028;8.834;2022-10-23T18:54:00;16.20;99.90
31455;DHT22;18084;53.028;8.834;2022-10-23T18:56:26;16.00;99.90
31455;DHT22;18084;53.028;8.834;2022-10-23T18:58:53;16.30;99.90
31455;DHT22;18084;53.028;8.834;2022-10-23T19:01:20;16.40;99.90
31455;DHT22;18084;53.028;8.834;2022-10-23T19:03:46;15.70;99.90
31455;DHT22;18084;53.028;8.834;2022-10-23T19:06:12;15.70;99.90
31455;DHT22;18084;53.028;8.834;2022-10-23T19:08:40;16.80;99.90
31455;DHT22;18084;53.028;8.834;2022-10-23T19:11:07;17.50;99.90
31455;DHT22;18084;53.028;8.834;2022-10-23T19:13:34;15.30;99.90
31455;DHT22;18084;53.028;8.834;2022-10-23T19:16:11;16.30;99.90
31455;DHT22;18084;53.028;8.834;2022-10-23T19:18:39;15.30;99.90
31455;DHT22;18084;53.028;8.834;2022-10-23T19:21:06;17.40;99.90
31455;DHT22;18084;53.028;8.834;2022-10-23T19:23:32;16.60;99.90
31455;DHT22;18084;53.028;8.834;2022-10-23T19:26:04;17.20;99.90
31455;DHT22;18084;53.028;8.834;2022-10-23T19:28:34;15.80;99.90
31455;DHT22;18084;53.028;8.834;2022-10-23T19:31:00;16.00;99.90
31455;DHT22;18084;53.028;8.834;2022-10-23T19:33:25;17.70;99.90
31455;DHT22;18084;53.028;8.834;2022-10-23T19:35:51;15.90;99.90
31455;DHT22;18084;53.028;8.834;2022-10-23T19:38:16;16.00;99.90
31455;DHT22;18084;53.028;8.834;2022-10-23T19:40:42;16.80;99.90
31455;DHT22;18084;53.028;8.834;2022-10-23T19:43:07;18.10;99.90
31455;DHT22;18084;53.028;8.834;2022-10-23T19:45:33;13.60;99.90
31455;DHT22;18084;53.028;8.834;2022-10-23T19:47:59;17.20;99.90
31455;DHT22;18084;53.028;8.834;2022-10-23T19:50:24;15.30;99.90
31455;DHT22;18084;53.028;8.834;2022-10-23T19:52:50;17.90;99.90
31455;DHT22;18084;53.028;8.834;2022-10-23T19:55:15;15.40;99.90
31455;DHT22;18084;53.028;8.834;2022-10-23T19:57:41;15.20;99.90
31455;DHT22;18084;53.028;8.834;2022-10-23T20:00:07;16.10;99.90
31455;DHT22;18084;53.028;8.834;2022-10-23T20:02:34;15.10;99.90
31455;DHT22;18084;53.028;8.834;2022-10-23T20:05:01;16.10;99.90
31455;DHT22;18084;53.028;8.834;2022-10-23T20:07:28;16.30;99.90
31455;DHT22;18084;53.028;8.834;2022-10-23T20:09:56;15.20;99.90
31455;DHT22;18084;53.028;8.834;2022-10-23T20:12:21;15.10;99.90
31455;DHT22;18084;53.028;8.834;2022-10-23T20:14:47;16.50;99.90
31455;DHT22;18084;53.028;8.834;2022-10-23T20:17:13;14.80;99.90
31455;DHT22;18084;53.028;8.834;2022-10-23T20:19:38;15.80;99.90
31455;DHT22;18084;53.028;8.834;2022-10-23T20:22:04;15.20;99.90
31455;DHT22;18084;53.028;8.834;2022-10-23T20:24:29;15.10;99.90
31455;DHT22;18084;53.028;8.834;2022-10-23T20:26:55;17.80;99.90
31455;DHT22;18084;53.028;8.834;2022-10-23T20:29:22;15.30;99.90
31455;DHT22;18084;53.028;8.834;2022-10-23T20:31:49;15.10;99.90
31455;DHT22;18084;53.028;8.834;2022-10-23T20:34:14;14.80;99.90
31455;DHT22;18084;53.028;8.834;2022-10-23T20:36:42;14.90;99.90
31455;DHT22;18084;53.028;8.834;2022-10-23T20:39:11;14.90;99.90
31455;DHT22;18084;53.028;8.834;2022-10-23T20:41:37;16.30;99.90
31455;DHT22;18084;53.028;8.834;2022-10-23T20:44:06;16.90;99.90
31455;DHT22;18084;53.028;8.834;2022-10-23T22:11:52;14.50;99.90
31455;DHT22;18084;53.028;8.834;2022-10-23T22:14:18;14.70;99.90
31455;DHT22;18084;53.028;8.834;2022-10-23T22:16:44;14.50;99.90
31455;DHT22;18084;53.028;8.834;2022-10-23T22:19:11;15.80;99.90
31455;DHT22;18084;53.028;8.834;2022-10-23T22:21:38;14.50;99.90
31455;DHT22;18084;53.028;8.834;2022-10-23T22:24:04;14.40;99.90
31455;DHT22;18084;53.028;8.834;2022-10-23T22:26:30;14.40;99.90
31455;DHT22;18084;53.028;8.834;2022-10-23T22:29:03;14.40;99.90
31455;DHT22;18084;53.028;8.834;2022-10-23T22:31:31;14.40;99.90
31455;DHT22;18084;53.028;8.834;2022-10-23T22:33:58;14.40;99.90
31455;DHT22;18084;53.028;8.834;2022-10-23T22:36:24;14.40;99.90
31455;DHT22;18084;53.028;8.834;2022-10-23T22:38:50;14.40;99.90
31455;DHT22;18084;53.028;8.834;2022-10-23T22:41:15;16.10;99.90
31455;DHT22;18084;53.028;8.834;2022-10-23T22:43:41;14.70;99.90
31455;DHT22;18084;53.028;8.834;2022-10-23T22:46:11;14.50;99.90
31455;DHT22;18084;53.028;8.834;2022-10-23T22:48:37;14.50;99.90
31455;DHT22;18084;53.028;8.834;2022-10-23T22:51:02;14.50;99.90
31455;DHT22;18084;53.028;8.834;2022-10-23T22:53:28;14.50;99.90
31455;DHT22;18084;53.028;8.834;2022-10-23T22:55:54;14.50;99.90
31455;DHT22;18084;53.028;8.834;2022-10-23T22:58:20;14.50;99.90
31455;DHT22;18084;53.028;8.834;2022-10-23T23:00:46;14.40;99.90
31455;DHT22;18084;53.028;8.834;2022-10-23T23:03:12;14.40;99.90
31455;DHT22;18084;53.028;8.834;2022-10-23T23:05:44;14.40;99.90
31455;DHT22;18084;53.028;8.834;2022-10-23T23:08:11;14.40;99.90
31455;DHT22;18084;53.028;8.834;2022-10-23T23:10:37;14.80;99.90
31455;DHT22;18084;53.028;8.834;2022-10-23T23:13:03;14.50;99.90
31455;DHT22;18084;53.028;8.834;2022-10-23T23:15:29;14.50;99.90
31455;DHT22;18084;53.028;8.834;2022-10-23T23:17:54;14.50;99.90
31455;DHT22;18084;53.028;8.834;2022-10-23T23:20:20;14.50;99.90
31455;DHT22;18084;53.028;8.834;2022-10-23T23:22:45;14.80;99.90
31455;DHT22;18084;53.028;8.834;2022-10-23T23:25:11;14.40;99.90
31455;DHT22;18084;53.028;8.834;2022-10-23T23:27:36;15.10;99.90
31455;DHT22;18084;53.028;8.834;2022-10-23T23:30:05;14.40;99.90
31455;DHT22;18084;53.028;8.834;2022-10-23T23:32:32;14.40;99.90
31455;DHT22;18084;53.028;8.834;2022-10-23T23:34:59;14.40;99.90
31455;DHT22;18084;53.028;8.834;2022-10-23T23:37:24;14.50;99.90
31455;DHT22;18084;53.028;8.834;2022-10-23T23:39:50;14.50;99.90
31455;DHT22;18084;53.028;8.834;2022-10-23T23:42:15;14.60;99.90
31455;DHT22;18084;53.028;8.834;2022-10-23T23:44:41;14.60;99.90
31455;DHT22;18084;53.028;8.834;2022-10-23T23:47:06;14.60;99.90
31455;DHT22;18084;53.028;8.834;2022-10-23T23:49:32;14.60;99.90
31455;DHT22;18084;53.028;8.834;2022-10-23T23:51:57;14.60;99.90
31455;DHT22;18084;53.028;8.834;2022-10-23T23:54:23;14.60;99.90
31455;DHT22;18084;53.028;8.834;2022-10-23T23:56:48;15.60;99.90
31455;DHT22;18084;53.028;8.834;2022-10-23T23:59:14;14.60;99.90
